Hedgesville, WV

5:42 AM EDT on April 25, 2015 (GMT -0400)
Glengary | | Change Station
CLOSE
Current Station
Personal Weather Station
Location: Hedgesville, WV
Elevation: 600 ft
Nearby Weather Stations

Elev 600 ft 39.38 °N, 78.17 °W | Updated 22 seconds ago

Overcast
Overcast
36.1 °F
Feels Like 36 °F
N
0.0
Wind Variable Wind from WNW
Gusts 0.0 mph

Today
High -- | Low -- °F
--% Chance of Precip.
Yesterday
High -- | Low -- °F
Precip. -- in
6:21 AM 8:00 PM
Waxing Crescent, 44% visible
Pressure 29.97 in
Visibility 10.0 miles
Clouds Overcast 10000 ft
Windchill 36 °F
Dew Point 31 °F
Humidity 82%
Rainfall 0.00 in
Snow Depth Not available.
UV 0.0 out of 12
Pollen 10.40 out of 12
Air Quality Not available.
Flu Activity Sporadic
METAR KMRB 250853Z AUTO 00000KT 10SM OVC100 07/M10 A2997 RMK AO2 SLP149 T00671100 58002 TSNO

More Conditions Fewer Conditions

Pressure 29.97 in
Visibility 10.0 miles
Clouds Overcast 10000 ft
Windchill 36 °F
Dew Point 31 °F
Humidity 82%
Rainfall 0.00 in
Snow Depth Not available.
UV 0.0 out of 12
Pollen 10.40 out of 12
Air Quality Not available.
Flu Activity Sporadic
METAR KMRB 250853Z AUTO 00000KT 10SM OVC100 07/M10 A2997 RMK AO2 SLP149 T00671100 58002 TSNO

More Conditions Fewer Conditions

10-Day Weather Forecast

Almanac

Astronomy

Apr. 25, 2015 Rise Set
Actual Time
Civil Twilight
Nautical Twilight
Astronomical Twilight
Moon
Length of Visible Light
Length of Day
Tomorrow will be .
, % of the Moon is Illuminated

Today's Extremes

State Highs State Lows

Community

WunderPhotos

Upload Photos

1,816,630 photos uploaded!

WunderBlogs® & News

Nearby

Air Quality

  Air Quality AQ Index Pollutant
Not available.

Snow Depth

Station Depth Elevation

Earthquake Activity

City Distance Mag. Time & Date
Minimum magnitude displayed is 2.5.

Coastal Water Temperatures

Place Temperature

Stations

Nearby Weather Stations

Station Location Temp. Windchill Dew Point Humidity Wind Precip. Elev Updated Type